Time;durP1;ratioP1;P1;durP2;ratioP2;P2;SDS_P1;SDS_P2;PMS_P1;PMS_P2;Temp;Humidity;BMP_temperature;BMP_pressure;BME280_temperature;BME280_humidity;BME280_pressure;Samples;Min_cycle;Max_cycle;Signal;HPM_P1;HPM_P2
2021/09/23 00:00:32;;;;;;;27.92;17.67;;;;;;;10.60;100.00;101572.66;4944775;28;20469;-83
2021/09/23 00:03:11;;;;;;;27.45;17.42;;;;;;;10.57;100.00;101562.16;4943112;28;20059;-87
2021/09/23 00:05:47;;;;;;;29.75;19.52;;;;;;;10.55;100.00;101558.66;4931243;28;20054;-85
2021/09/23 00:08:14;;;;;;;27.58;18.88;;;;;;;10.51;100.00;101554.28;4960540;28;20063;-86
2021/09/23 00:10:42;;;;;;;31.85;20.02;;;;;;;10.47;100.00;101552.50;4921186;28;20110;-84
2021/09/23 00:13:20;;;;;;;32.28;19.25;;;;;;;10.49;100.00;101549.00;4923165;28;20058;-84
2021/09/23 00:15:47;;;;;;;29.13;19.42;;;;;;;10.46;100.00;101537.66;4927459;28;20121;-85
2021/09/23 00:18:17;;;;;;;34.60;20.38;;;;;;;10.42;100.00;101521.06;4945105;28;21112;-87
2021/09/23 00:20:49;;;;;;;28.20;19.80;;;;;;;10.42;100.00;101537.63;4932436;28;20047;-88
2021/09/23 00:23:18;;;;;;;29.08;19.17;;;;;;;10.39;100.00;101537.63;4936768;28;20576;-87
2021/09/23 00:25:45;;;;;;;28.15;18.08;;;;;;;10.34;100.00;101536.69;4938274;28;20053;-83
2021/09/23 00:28:14;;;;;;;29.63;17.70;;;;;;;10.33;100.00;101534.06;4937482;28;20051;-83
2021/09/23 00:30:42;;;;;;;32.45;19.75;;;;;;;10.34;100.00;101531.47;4928846;28;20117;-82
2021/09/23 00:33:14;;;;;;;30.08;18.90;;;;;;;10.37;100.00;101528.00;4942046;28;20074;-85
2021/09/23 00:35:41;;;;;;;28.88;19.00;;;;;;;10.40;100.00;101522.78;4923967;28;20071;-85
2021/09/23 00:38:11;;;;;;;30.73;20.27;;;;;;;10.44;100.00;101521.94;4934189;28;20236;-84
2021/09/23 00:40:37;;;;;;;25.95;17.00;;;;;;;10.45;100.00;101518.44;4942938;28;20082;-84
2021/09/23 00:43:10;;;;;;;29.50;19.80;;;;;;;10.45;100.00;101507.97;4937701;28;20433;-88
2021/09/23 00:45:37;;;;;;;27.17;16.80;;;;;;;10.42;100.00;101502.75;4918443;28;20789;-87
2021/09/23 00:48:04;;;;;;;31.50;18.02;;;;;;;10.40;100.00;101504.47;4938025;28;20113;-84
2021/09/23 00:50:32;;;;;;;36.53;20.58;;;;;;;10.43;100.00;101504.50;4921776;28;20502;-85
2021/09/23 00:53:02;;;;;;;31.50;20.23;;;;;;;10.44;100.00;101506.22;4911408;28;20062;-85
2021/09/23 00:55:30;;;;;;;35.05;20.02;;;;;;;10.43;100.00;101510.59;4923549;28;20061;-84
2021/09/23 00:58:00;;;;;;;28.15;17.35;;;;;;;10.43;100.00;101509.75;4919912;28;20055;-88
2021/09/23 01:00:26;;;;;;;43.03;19.20;;;;;;;10.41;100.00;101501.84;4933841;28;20074;-83
2021/09/23 01:02:53;;;;;;;31.75;19.25;;;;;;;10.40;100.00;101512.31;4924141;28;20731;-86
2021/09/23 01:05:20;;;;;;;32.03;20.15;;;;;;;10.42;100.00;101507.97;4921623;28;20051;-83
2021/09/23 01:07:49;;;;;;;33.90;19.80;;;;;;;10.41;100.00;101495.75;4936287;28;20055;-84
2021/09/23 01:10:20;;;;;;;27.85;19.58;;;;;;;10.47;100.00;101492.28;4938708;28;20702;-84
2021/09/23 01:12:47;;;;;;;29.00;18.50;;;;;;;10.48;100.00;101483.56;4938126;28;20517;-83
2021/09/23 01:15:17;;;;;;;33.70;21.52;;;;;;;10.54;100.00;101484.47;4948071;28;20043;-84
2021/09/23 01:17:45;;;;;;;28.73;18.45;;;;;;;10.57;100.00;101480.97;4938237;28;20378;-83
2021/09/23 01:20:13;;;;;;;35.33;20.73;;;;;;;10.56;99.97;101474.03;4934263;28;20042;-88
2021/09/23 01:22:40;;;;;;;32.60;20.77;;;;;;;10.53;100.00;101467.03;4939113;28;20082;-85
2021/09/23 01:25:10;;;;;;;36.13;22.13;;;;;;;10.51;100.00;101471.38;4935065;28;20058;-88
2021/09/23 01:27:37;;;;;;;30.85;18.88;;;;;;;10.46;99.64;101461.75;4946397;28;20059;-85
2021/09/23 01:30:07;;;;;;;32.70;20.55;;;;;;;10.41;99.78;101459.97;4919082;28;20489;-84
2021/09/23 01:32:41;;;;;;;34.25;21.13;;;;;;;10.41;100.00;101456.50;4908470;28;20122;-84
2021/09/23 01:35:09;;;;;;;31.40;19.95;;;;;;;10.40;100.00;101454.72;4914756;28;20094;-83
2021/09/23 01:37:37;;;;;;;32.72;22.40;;;;;;;10.40;100.00;101450.41;4899329;28;20051;-84
2021/09/23 01:40:07;;;;;;;34.45;22.00;;;;;;;10.38;99.86;101441.66;4917463;28;20048;-86
2021/09/23 01:42:33;;;;;;;37.15;22.60;;;;;;;10.39;100.00;101439.91;4921430;28;20702;-85
2021/09/23 01:45:02;;;;;;;35.50;22.10;;;;;;;10.39;99.76;101437.28;4899403;28;20043;-85
2021/09/23 01:47:29;;;;;;;39.60;23.63;;;;;;;10.40;100.00;101428.56;4921317;28;20043;-87
2021/09/23 01:49:55;;;;;;;37.78;23.77;;;;;;;10.40;99.96;101426.84;4915522;28;20047;-87
2021/09/23 01:52:22;;;;;;;36.53;22.30;;;;;;;10.43;99.84;101425.97;4908543;28;20062;-83
2021/09/23 01:54:48;;;;;;;35.45;22.85;;;;;;;10.44;99.22;101414.59;4919449;28;20051;-88
2021/09/23 01:57:16;;;;;;;34.80;20.65;;;;;;;10.41;98.84;101415.47;4916572;28;20047;-85
2021/09/23 01:59:43;;;;;;;32.92;20.52;;;;;;;10.40;99.51;101415.47;4907923;28;20054;-86
2021/09/23 02:02:09;;;;;;;33.53;20.95;;;;;;;10.36;99.19;101408.47;4903488;28;20035;-83
2021/09/23 02:04:39;;;;;;;37.92;24.23;;;;;;;10.33;99.22;101405.84;4906954;28;20067;-86
2021/09/23 02:07:08;;;;;;;34.63;22.30;;;;;;;10.33;99.60;101403.22;4914460;28;20379;-84
2021/09/23 02:09:35;;;;;;;34.33;22.45;;;;;;;10.28;99.66;101403.19;4900429;28;20059;-85
2021/09/23 02:12:08;;;;;;;39.22;23.05;;;;;;;10.25;99.84;101396.19;4919662;28;20054;-84
2021/09/23 02:14:34;;;;;;;31.40;21.77;;;;;;;10.25;99.73;101390.09;4933353;28;20083;-86
2021/09/23 02:17:01;;;;;;;38.63;24.25;;;;;;;10.20;99.99;101387.44;4919830;28;20661;-88
2021/09/23 02:19:28;;;;;;;35.72;21.00;;;;;;;10.18;100.00;101380.47;4904753;28;20043;-85
2021/09/23 02:21:55;;;;;;;32.83;21.73;;;;;;;10.16;100.00;101380.47;4921532;28;20860;-86
2021/09/23 02:24:21;;;;;;;41.97;23.92;;;;;;;10.12;100.00;101376.09;4911866;28;20055;-89
2021/09/23 02:26:48;;;;;;;37.40;22.63;;;;;;;10.10;100.00;101367.34;4902965;28;20142;-82
2021/09/23 02:29:15;;;;;;;38.47;24.85;;;;;;;10.09;100.00;101361.25;4920141;28;20059;-86
2021/09/23 02:31:41;;;;;;;35.10;22.08;;;;;;;10.09;100.00;101355.16;4919371;28;20043;-82
2021/09/23 02:34:08;;;;;;;37.45;22.88;;;;;;;10.06;100.00;101358.63;4922310;28;20567;-85
2021/09/23 02:36:35;;;;;;;36.65;23.42;;;;;;;10.05;100.00;101350.75;4918642;28;20138;-83
2021/09/23 02:39:01;;;;;;;42.08;25.45;;;;;;;10.09;100.00;101348.16;4922438;28;20062;-85
2021/09/23 02:41:30;;;;;;;47.22;24.15;;;;;;;10.08;100.00;101341.19;4919409;28;20050;-83
2021/09/23 02:43:57;;;;;;;45.38;25.38;;;;;;;10.06;100.00;101344.66;4896055;28;20569;-82
2021/09/23 02:46:23;;;;;;;38.25;22.75;;;;;;;10.08;100.00;101343.78;4915044;28;20051;-87
2021/09/23 02:48:50;;;;;;;39.22;23.80;;;;;;;10.10;100.00;101336.84;4902937;28;20047;-84
2021/09/23 02:51:17;;;;;;;32.75;20.75;;;;;;;10.06;99.97;101328.97;4911878;28;20073;-84
2021/09/23 02:53:46;;;;;;;36.25;21.75;;;;;;;10.01;100.00;101331.56;4917816;28;20066;-84
2021/09/23 02:56:13;;;;;;;41.85;22.52;;;;;;;9.96;100.00;101330.69;4903865;28;20062;-83
2021/09/23 02:58:39;;;;;;;39.17;24.65;;;;;;;9.94;100.00;101335.00;4921586;28;20387;-83
2021/09/23 03:01:06;;;;;;;37.47;24.17;;;;;;;9.90;100.00;101326.28;4916501;28;20098;-82
2021/09/23 03:03:32;;;;;;;35.67;23.95;;;;;;;9.88;100.00;101317.56;4903387;28;20074;-85
2021/09/23 03:06:05;;;;;;;37.03;23.13;;;;;;;9.89;100.00;101326.28;4914548;28;20134;-85
2021/09/23 03:08:31;;;;;;;36.85;24.13;;;;;;;9.90;100.00;101317.56;4904417;28;20077;-82
2021/09/23 03:10:58;;;;;;;38.45;23.23;;;;;;;9.92;100.00;101310.59;4919474;28;20054;-86
2021/09/23 03:13:24;;;;;;;34.85;22.25;;;;;;;9.88;100.00;101306.22;4912054;28;20062;-84
2021/09/23 03:15:51;;;;;;;41.38;24.10;;;;;;;9.84;100.00;101302.72;4919656;28;20426;-85
2021/09/23 03:18:18;;;;;;;36.53;23.55;;;;;;;9.84;100.00;101300.13;4914946;28;20134;-81
2021/09/23 03:20:48;;;;;;;41.22;24.80;;;;;;;9.82;100.00;101300.97;4921701;28;20142;-81
2021/09/23 03:23:24;;;;;;;36.38;22.88;;;;;;;9.81;100.00;101299.22;4919383;28;20059;-85
2021/09/23 03:25:58;;;;;;;42.35;24.42;;;;;;;9.79;100.00;101294.00;4949541;28;20055;-82
2021/09/23 03:28:25;;;;;;;44.28;24.65;;;;;;;9.76;100.00;101294.84;4918654;28;20047;-84
2021/09/23 03:30:53;;;;;;;38.35;24.58;;;;;;;9.71;100.00;101291.34;4925554;28;20047;-81
2021/09/23 03:33:19;;;;;;;42.78;23.38;;;;;;;9.70;100.00;101294.81;4922071;28;20478;-84
2021/09/23 03:35:46;;;;;;;43.45;23.45;;;;;;;9.67;100.00;101286.94;4917916;28;20070;-82
2021/09/23 03:38:12;;;;;;;40.00;25.27;;;;;;;9.64;100.00;101289.53;4920826;28;20078;-83
2021/09/23 03:40:39;;;;;;;37.33;24.45;;;;;;;9.60;100.00;101298.25;4922981;28;20054;-83
2021/09/23 03:43:06;;;;;;;40.58;25.17;;;;;;;9.57;100.00;101293.00;4906752;28;20057;-85
2021/09/23 03:45:33;;;;;;;43.80;26.73;;;;;;;9.57;100.00;101290.41;4918235;28;20054;-82
2021/09/23 03:48:00;;;;;;;46.50;26.23;;;;;;;9.57;100.00;101288.66;4896994;28;20058;-86
2021/09/23 03:50:26;;;;;;;39.85;23.77;;;;;;;9.56;100.00;101279.03;4906627;28;20035;-84
2021/09/23 03:52:53;;;;;;;47.80;26.63;;;;;;;9.56;100.00;101280.81;4918491;28;20144;-87
2021/09/23 03:55:20;;;;;;;40.80;26.95;;;;;;;9.54;100.00;101285.13;4921200;28;20043;-82
2021/09/23 03:57:47;;;;;;;43.10;25.83;;;;;;;9.53;100.00;101280.75;4907965;28;20058;-84
2021/09/23 04:00:20;;;;;;;44.33;25.55;;;;;;;9.55;100.00;101277.28;4917877;28;20051;-83
2021/09/23 04:02:48;;;;;;;49.70;28.02;;;;;;;9.56;100.00;101271.22;4921842;28;20065;-85
2021/09/23 04:05:15;;;;;;;47.65;28.50;;;;;;;9.60;100.00;101267.72;4902002;28;20051;-88
2021/09/23 04:07:46;;;;;;;47.25;26.80;;;;;;;9.59;100.00;101263.41;4906886;28;20138;-82
2021/09/23 04:10:12;;;;;;;45.45;26.95;;;;;;;9.59;100.00;101263.41;4920175;28;20090;-82
2021/09/23 04:12:39;;;;;;;48.03;26.40;;;;;;;9.59;100.00;101268.63;4904079;28;20066;-84
2021/09/23 04:15:08;;;;;;;51.08;28.52;;;;;;;9.56;100.00;101259.88;4922637;28;20056;-82
2021/09/23 04:17:35;;;;;;;41.55;25.20;;;;;;;9.54;100.00;101253.78;4900769;28;20051;-83
2021/09/23 04:20:05;;;;;;;49.53;27.42;;;;;;;9.49;100.00;101251.16;4930436;28;20849;-82
2021/09/23 04:22:32;;;;;;;47.47;26.58;;;;;;;9.46;100.00;101239.81;4902999;28;20054;-83
2021/09/23 04:24:58;;;;;;;50.45;28.55;;;;;;;9.39;100.00;101244.97;4920726;28;20055;-85
2021/09/23 04:27:25;;;;;;;51.22;28.27;;;;;;;9.35;100.00;101240.63;4916106;28;20054;-84
2021/09/23 04:29:51;;;;;;;48.58;29.27;;;;;;;9.31;100.00;101246.69;4915414;28;20046;-81
2021/09/23 04:32:18;;;;;;;41.22;26.10;;;;;;;9.27;100.00;101240.56;4920217;28;20054;-84
2021/09/23 04:34:45;;;;;;;43.22;26.50;;;;;;;9.23;100.00;101235.31;4903937;28;23377;-83
2021/09/23 04:37:11;;;;;;;45.50;27.35;;;;;;;9.21;100.00;101247.50;4902976;28;20055;-82
2021/09/23 04:39:38;;;;;;;41.88;24.48;;;;;;;9.22;100.00;101244.03;4919172;28;20047;-84
2021/09/23 04:42:05;;;;;;;52.20;29.35;;;;;;;9.19;100.00;101250.09;4895329;28;20062;-86
2021/09/23 04:44:32;;;;;;;53.33;29.17;;;;;;;9.19;100.00;101241.38;4914140;28;21187;-83
2021/09/23 04:47:02;;;;;;;51.70;27.90;;;;;;;9.16;100.00;101252.69;4912798;28;20047;-84
2021/09/23 04:49:32;;;;;;;50.85;26.17;;;;;;;9.14;100.00;101241.38;4904508;28;20070;-84
2021/09/23 04:52:01;;;;;;;50.78;28.13;;;;;;;9.16;100.00;101239.63;4900986;28;21123;-86
2021/09/23 04:54:28;;;;;;;42.88;26.90;;;;;;;9.16;100.00;101236.16;4897789;28;20047;-83
2021/09/23 04:56:54;;;;;;;53.92;26.63;;;;;;;9.18;100.00;101221.38;4903785;28;20083;-86
2021/09/23 04:59:21;;;;;;;42.42;26.23;;;;;;;9.16;100.00;101216.09;4913803;28;20061;-83
2021/09/23 05:01:47;;;;;;;49.78;28.17;;;;;;;9.17;100.00;101211.78;4917627;28;20043;-81
2021/09/23 05:04:15;;;;;;;49.45;27.13;;;;;;;9.15;100.00;101211.78;4915301;28;20563;-85
2021/09/23 05:06:43;;;;;;;49.85;27.20;;;;;;;9.16;100.00;101216.09;4904925;28;20055;-84
2021/09/23 05:09:10;;;;;;;46.55;26.08;;;;;;;9.16;100.00;101210.03;4920257;28;20406;-83
2021/09/23 05:11:37;;;;;;;51.00;26.83;;;;;;;9.14;100.00;101207.41;4898074;28;20052;-83
2021/09/23 05:14:07;;;;;;;54.60;29.80;;;;;;;9.15;100.00;101203.03;4901442;28;20486;-83
2021/09/23 05:16:35;;;;;;;55.50;30.25;;;;;;;9.19;100.00;101192.63;4905029;28;20047;-84
2021/09/23 05:19:02;;;;;;;51.50;26.95;;;;;;;9.23;100.00;101196.13;4919312;28;20408;-83
2021/09/23 05:21:31;;;;;;;53.30;28.95;;;;;;;9.24;100.00;101195.25;4906894;28;20059;-88
2021/09/23 05:24:01;;;;;;;56.67;31.30;;;;;;;9.30;100.00;101197.91;4921961;28;20133;-83
2021/09/23 05:26:28;;;;;;;56.53;31.05;;;;;;;9.35;100.00;101206.66;4926717;28;20219;-82
2021/09/23 05:28:55;;;;;;;59.08;31.05;;;;;;;9.54;100.00;101196.28;4919461;28;20051;-89
2021/09/23 05:31:22;;;;;;;53.53;26.70;;;;;;;9.70;100.00;101194.56;4921052;28;20166;-83
2021/09/23 05:33:49;;;;;;;56.03;29.77;;;;;;;9.82;100.00;101191.16;4913263;28;20487;-84
2021/09/23 05:36:15;;;;;;;49.17;28.42;;;;;;;9.96;100.00;101194.69;4918458;28;20074;-86
2021/09/23 05:38:42;;;;;;;53.38;28.83;;;;;;;10.10;100.00;101197.28;4903466;28;20064;-83
2021/09/23 05:41:09;;;;;;;48.10;27.80;;;;;;;10.22;99.98;101197.34;4894725;28;20336;-87
2021/09/23 05:43:35;;;;;;;46.22;26.20;;;;;;;10.39;99.64;101196.47;4917206;28;20057;-85
2021/09/23 05:46:02;;;;;;;45.83;27.73;;;;;;;10.68;97.87;101200.88;4916990;28;20039;-83
2021/09/23 05:48:28;;;;;;;47.55;27.30;;;;;;;10.86;97.10;101187.75;4907014;28;20546;-85
2021/09/23 05:50:58;;;;;;;37.28;22.77;;;;;;;11.05;95.88;101185.09;4907142;28;20925;-83
2021/09/23 05:53:25;;;;;;;44.40;25.17;;;;;;;11.24;93.95;101175.44;4933907;28;20047;-86
2021/09/23 05:55:51;;;;;;;43.95;24.55;;;;;;;11.48;91.89;101168.34;4926384;28;20051;-85
2021/09/23 05:58:18;;;;;;;38.10;22.15;;;;;;;11.77;90.53;101162.09;4922487;28;20054;-83
2021/09/23 06:00:45;;;;;;;42.80;23.60;;;;;;;11.95;88.17;101159.38;4908182;28;20422;-86
2021/09/23 06:03:11;;;;;;;36.03;22.45;;;;;;;12.08;88.18;101158.44;4906005;28;20158;-86
2021/09/23 06:05:38;;;;;;;36.63;20.83;;;;;;;12.15;88.65;101147.88;4919144;28;20114;-86
2021/09/23 06:08:05;;;;;;;41.13;23.55;;;;;;;12.21;87.24;101142.59;4922753;28;20426;-83
2021/09/23 06:10:32;;;;;;;33.60;20.10;;;;;;;12.32;87.09;101147.72;4904654;28;20074;-88
2021/09/23 06:12:59;;;;;;;34.58;20.17;;;;;;;12.41;86.74;101145.91;4919335;28;20398;-84
2021/09/23 06:15:26;;;;;;;29.25;18.63;;;;;;;12.54;85.27;101141.44;4920008;28;21329;-84
2021/09/23 06:17:55;;;;;;;31.60;18.48;;;;;;;12.66;85.12;101137.81;4907252;28;20502;-87
2021/09/23 06:20:22;;;;;;;27.52;18.20;;;;;;;12.71;84.20;101122.88;4907707;28;20055;-84
2021/09/23 06:22:50;;;;;;;26.30;16.65;;;;;;;12.83;83.01;101124.50;4924232;28;20050;-86
2021/09/23 06:25:17;;;;;;;26.02;17.23;;;;;;;12.93;83.13;101135.75;4923568;28;20059;-86
2021/09/23 06:27:44;;;;;;;26.50;16.58;;;;;;;13.03;81.83;101140.03;4906584;28;20109;-83
2021/09/23 06:30:12;;;;;;;25.88;16.52;;;;;;;13.07;82.71;101133.00;4940564;28;20062;-88
2021/09/23 06:32:39;;;;;;;25.30;16.75;;;;;;;13.10;82.26;101130.31;4923136;28;20047;-84
2021/09/23 06:35:06;;;;;;;29.73;17.17;;;;;;;13.14;81.39;101126.78;4928041;28;20074;-85
2021/09/23 06:37:33;;;;;;;24.88;16.45;;;;;;;13.18;81.65;101122.34;4941563;28;20045;-84
2021/09/23 06:40:00;;;;;;;29.95;16.08;;;;;;;13.26;80.24;101117.00;4939152;28;20437;-85
2021/09/23 06:42:26;;;;;;;27.67;15.57;;;;;;;13.33;79.52;101113.41;4941713;28;20437;-87
2021/09/23 06:44:53;;;;;;;24.00;15.10;;;;;;;13.39;80.00;101105.47;4938070;28;20144;-88
2021/09/23 06:47:20;;;;;;;25.35;15.63;;;;;;;13.47;80.29;101114.13;4939699;28;20570;-83
2021/09/23 06:49:50;;;;;;;28.10;16.05;;;;;;;13.57;78.46;101121.00;4939160;28;20058;-85
2021/09/23 06:52:17;;;;;;;25.80;13.88;;;;;;;13.74;78.27;101133.06;4942000;28;20042;-85
2021/09/23 06:54:45;;;;;;;26.55;14.68;;;;;;;13.99;76.05;101116.91;4925999;28;20392;-83
2021/09/23 06:57:12;;;;;;;18.98;13.20;;;;;;;14.29;76.39;101106.72;4932569;28;20051;-84
2021/09/23 06:59:38;;;;;;;24.17;14.60;;;;;;;14.48;73.98;101104.66;4925008;28;20054;-84
2021/09/23 07:02:05;;;;;;;20.85;14.43;;;;;;;14.52;74.23;101107.22;4922507;28;20122;-84
2021/09/23 07:04:31;;;;;;;23.52;15.95;;;;;;;14.55;73.00;101106.28;4910494;28;20340;-90
2021/09/23 07:06:58;;;;;;;24.73;13.98;;;;;;;14.56;73.19;101100.09;4921481;28;20050;-83
2021/09/23 07:09:25;;;;;;;21.85;13.85;;;;;;;14.53;72.06;101082.59;4939429;28;20939;-83
2021/09/23 07:11:52;;;;;;;20.35;13.50;;;;;;;14.54;72.88;101086.09;4924993;28;20418;-83
2021/09/23 07:14:18;;;;;;;23.48;14.05;;;;;;;14.60;72.92;101080.72;4931147;28;20101;-87
2021/09/23 07:16:45;;;;;;;24.45;13.15;;;;;;;14.67;72.33;101076.25;4939170;28;20441;-84
2021/09/23 07:19:12;;;;;;;20.85;13.88;;;;;;;14.68;71.57;101070.09;4939291;28;20142;-84
2021/09/23 07:21:38;;;;;;;21.80;13.57;;;;;;;14.68;72.31;101070.94;4939423;28;20413;-84
2021/09/23 07:24:05;;;;;;;18.60;12.18;;;;;;;14.69;72.20;101072.69;4925169;28;20061;-84
2021/09/23 07:26:32;;;;;;;25.48;14.48;;;;;;;14.67;70.85;101065.69;4922380;28;20051;-84
2021/09/23 07:29:00;;;;;;;19.40;13.23;;;;;;;14.65;71.23;101059.56;4935325;28;20185;-83
2021/09/23 07:31:27;;;;;;;23.75;13.98;;;;;;;14.64;71.45;101061.34;4941007;28;20047;-84
2021/09/23 07:33:54;;;;;;;22.17;14.23;;;;;;;14.61;71.39;101049.97;4938098;28;20411;-87
2021/09/23 07:36:21;;;;;;;26.00;14.30;;;;;;;14.59;71.21;101050.00;4925089;28;20042;-85
2021/09/23 07:38:48;;;;;;;19.27;12.40;;;;;;;14.60;71.51;101050.88;4929699;28;20053;-86
2021/09/23 07:41:14;;;;;;;19.33;12.52;;;;;;;14.62;70.90;101049.09;4940894;28;20066;-84
2021/09/23 07:43:41;;;;;;;20.92;12.82;;;;;;;14.67;70.96;101045.47;4947128;28;20042;-83
2021/09/23 07:46:08;;;;;;;20.17;11.95;;;;;;;14.76;70.28;101051.44;4916902;28;20047;-84
2021/09/23 07:48:38;;;;;;;22.40;14.00;;;;;;;14.81;69.99;101054.88;4940684;28;20053;-86
2021/09/23 07:51:05;;;;;;;22.73;12.52;;;;;;;14.84;69.88;101042.50;4951036;28;20047;-87
2021/09/23 07:53:32;;;;;;;24.63;12.60;;;;;;;14.85;69.81;101033.69;4944062;28;20055;-85
2021/09/23 07:56:00;;;;;;;19.25;11.70;;;;;;;14.89;69.42;101038.00;4940077;28;20536;-87
2021/09/23 07:58:27;;;;;;;20.30;12.45;;;;;;;14.91;69.63;101039.75;4921722;28;20050;-86
2021/09/23 08:00:54;;;;;;;23.15;12.82;;;;;;;14.95;68.18;101037.00;4937603;28;20834;-87
2021/09/23 08:03:21;;;;;;;19.92;11.77;;;;;;;15.22;67.76;101032.03;4944907;28;20552;-89
2021/09/23 08:05:48;;;;;;;15.98;11.23;;;;;;;15.61;66.17;101023.25;4943827;28;20424;-83
2021/09/23 08:08:14;;;;;;;20.15;11.98;;;;;;;15.86;65.04;101021.75;4937343;28;20055;-85
2021/09/23 08:10:41;;;;;;;16.02;10.52;;;;;;;16.23;63.57;101008.50;4936524;28;20137;-86
2021/09/23 08:13:08;;;;;;;18.85;10.60;;;;;;;16.59;62.96;101013.72;4940241;28;20047;-83
2021/09/23 08:15:35;;;;;;;17.33;10.48;;;;;;;16.88;61.16;101002.28;4926800;28;20062;-85
2021/09/23 08:18:01;;;;;;;14.85;11.18;;;;;;;16.68;61.63;101013.44;4923051;28;20050;-84
2021/09/23 08:20:28;;;;;;;20.95;11.30;;;;;;;16.39;62.25;101007.19;4925186;28;20070;-86
2021/09/23 08:22:55;;;;;;;14.98;10.45;;;;;;;16.22;63.17;101002.38;4937035;28;20051;-85
2021/09/23 08:25:22;;;;;;;14.35;10.90;;;;;;;16.31;63.44;100995.94;4939654;28;20066;-84
2021/09/23 08:27:49;;;;;;;17.30;9.45;;;;;;;16.60;63.03;100989.00;4927358;28;20078;-84
2021/09/23 08:30:15;;;;;;;20.08;11.13;;;;;;;16.95;60.07;100984.50;4944152;28;20054;-84
2021/09/23 08:32:43;;;;;;;17.85;10.10;;;;;;;17.18;59.55;100975.84;4930168;28;20045;-83
2021/09/23 08:35:14;;;;;;;16.17;9.68;;;;;;;17.74;59.08;100968.75;4939621;28;20070;-83
2021/09/23 08:37:41;;;;;;;15.50;10.50;;;;;;;18.29;56.70;100963.31;4927108;28;20039;-83
2021/09/23 08:40:11;;;;;;;11.15;8.80;;;;;;;18.81;56.07;100956.09;4926428;28;20047;-86
2021/09/23 08:42:44;;;;;;;12.00;9.07;;;;;;;19.44;53.41;100955.41;4969236;28;20042;-82
2021/09/23 08:45:13;;;;;;;14.07;9.82;;;;;;;19.57;52.72;100939.81;4936085;28;20129;-83
2021/09/23 08:47:46;;;;;;;18.23;9.60;;;;;;;20.06;50.07;100936.00;4937513;28;20058;-83
2021/09/23 08:50:16;;;;;;;16.58;10.23;;;;;;;20.54;49.64;100939.19;4943097;28;20051;-83
2021/09/23 08:52:44;;;;;;;16.33;8.55;;;;;;;20.40;49.20;100932.72;4942422;28;20066;-86
2021/09/23 08:55:30;;;;;;;11.52;8.75;;;;;;;20.52;48.44;100927.75;4948777;28;20062;-84
2021/09/23 08:58:00;;;;;;;11.18;8.57;;;;;;;20.43;48.79;100921.91;4933591;28;20058;-84
2021/09/23 09:00:31;;;;;;;11.45;8.05;;;;;;;19.99;49.62;100938.06;4913165;28;20975;-90
2021/09/23 09:03:10;;;;;;;10.77;7.60;;;;;;;20.04;49.32;100936.06;4947368;28;20063;-86
2021/09/23 09:05:38;;;;;;;10.88;8.57;;;;;;;20.04;49.55;100948.47;4945274;28;20493;-84
2021/09/23 09:08:11;;;;;;;11.50;7.78;;;;;;;19.59;50.13;100945.91;4951475;28;20055;-84
2021/09/23 09:10:40;;;;;;;9.02;8.10;;;;;;;19.25;51.44;100963.22;4949598;28;20379;-83
2021/09/23 09:13:09;;;;;;;8.48;7.22;;;;;;;18.86;52.13;100945.28;4931277;28;20051;-84
2021/09/23 09:15:45;;;;;;;10.63;7.10;;;;;;;18.43;53.65;100933.66;4945792;28;20058;-83
2021/09/23 09:18:14;;;;;;;10.50;7.85;;;;;;;18.23;53.90;100921.16;4912268;28;20091;-85
2021/09/23 09:21:09;;;;;;;9.65;6.95;;;;;;;18.03;53.95;100928.06;4946078;28;20043;-86
2021/09/23 09:23:49;;;;;;;15.48;6.78;;;;;;;17.94;55.04;100923.06;4932404;28;20043;-87
2021/09/23 09:26:43;;;;;;;10.07;7.30;;;;;;;17.95;54.33;100900.97;4946994;28;20855;-82
2021/09/23 09:29:13;;;;;;;7.90;6.90;;;;;;;17.92;54.59;100901.03;4952614;28;20150;-83
2021/09/23 09:31:49;;;;;;;8.52;6.20;;;;;;;18.02;54.41;100905.13;4955712;28;20085;-83
2021/09/23 09:34:17;;;;;;;11.85;7.78;;;;;;;18.32;53.68;100900.47;4946982;28;20054;-85
2021/09/23 09:36:49;;;;;;;11.23;5.97;;;;;;;18.52;52.80;100881.19;4936928;28;20149;-84
2021/09/23 09:39:23;;;;;;;13.55;7.43;;;;;;;18.85;52.06;100899.34;4948738;28;20086;-83
2021/09/23 09:41:56;;;;;;;16.38;7.05;;;;;;;19.27;50.55;100865.84;4935380;28;20446;-86
2021/09/23 09:44:22;;;;;;;9.82;7.35;;;;;;;19.84;49.55;100889.09;4923991;28;21004;-85
2021/09/23 09:46:53;;;;;;;10.95;6.90;;;;;;;20.49;48.22;100875.56;4942946;28;20051;-86
2021/09/23 09:49:25;;;;;;;8.38;5.65;;;;;;;20.97;46.59;100865.31;4931519;28;20055;-89
2021/09/23 09:51:58;;;;;;;9.13;5.72;;;;;;;21.11;46.14;100862.00;4946643;28;20054;-83
2021/09/23 09:54:25;;;;;;;8.90;5.35;;;;;;;20.87;46.49;100856.06;4944894;28;20499;-86
2021/09/23 09:57:06;;;;;;;6.03;5.10;;;;;;;20.98;46.17;100849.28;4945247;28;20381;-84
2021/09/23 09:59:35;;;;;;;9.48;5.20;;;;;;;20.89;46.14;100862.19;4944335;28;20406;-87
2021/09/23 10:02:02;;;;;;;8.07;5.47;;;;;;;20.90;46.25;100848.81;4942274;28;20067;-86
2021/09/23 10:04:36;;;;;;;7.25;5.43;;;;;;;20.83;46.43;100850.03;4949901;28;20070;-85
2021/09/23 10:07:06;;;;;;;9.07;5.43;;;;;;;20.80;46.57;100839.53;4928420;28;20062;-86
2021/09/23 10:09:39;;;;;;;15.77;5.15;;;;;;;21.05;45.81;100831.19;4946504;28;20119;-86
2021/09/23 10:12:07;;;;;;;;;;;;;;;21.11;44.74;100827.38;4933835;28;20413;-85
2021/09/23 10:14:36;;;;;;;6.43;5.25;;;;;;;21.18;44.58;100826.13;4928285;28;19930;-86
2021/09/23 10:17:03;;;;;;;8.13;4.97;;;;;;;21.17;45.38;100831.53;4919072;28;20039;-84
2021/09/23 10:19:30;;;;;;;8.00;5.22;;;;;;;21.06;45.29;100842.72;4929389;28;20397;-85
2021/09/23 10:22:05;;;;;;;9.15;5.00;;;;;;;21.36;45.24;100828.81;4928275;28;20067;-84
2021/09/23 10:24:35;;;;;;;6.25;4.38;;;;;;;21.69;44.79;100817.34;4942480;28;20051;-83
2021/09/23 10:27:03;;;;;;;8.07;3.80;;;;;;;21.72;43.60;100809.19;4924269;28;20150;-85
2021/09/23 10:29:50;;;;;;;12.00;5.63;;;;;;;21.26;44.54;100809.75;4908982;28;20119;-85
2021/09/23 10:32:17;;;;;;;12.63;4.18;;;;;;;21.10;45.16;100796.38;4924660;28;20042;-84
2021/09/23 10:34:44;;;;;;;10.57;5.15;;;;;;;21.14;45.16;100798.78;4901186;28;20599;-87
2021/09/23 10:37:11;;;;;;;8.80;5.40;;;;;;;21.27;44.48;100800.84;4925816;28;20043;-84
2021/09/23 10:39:38;;;;;;;5.25;3.85;;;;;;;21.32;45.00;100804.13;4904741;28;20087;-86
2021/09/23 10:42:11;;;;;;;7.20;4.80;;;;;;;21.43;44.13;100806.22;4907536;28;20144;-87
2021/09/23 10:44:40;;;;;;;6.55;4.57;;;;;;;21.30;44.96;100782.03;4918961;28;20098;-84
2021/09/23 10:47:08;;;;;;;11.15;4.85;;;;;;;21.38;45.01;100770.97;4914507;28;20054;-85
2021/09/23 10:49:35;;;;;;;11.93;4.95;;;;;;;21.59;44.84;100787.66;4924037;28;20075;-88
2021/09/23 10:52:05;;;;;;;6.90;4.40;;;;;;;22.30;44.07;100791.81;4905224;28;20083;-86
2021/09/23 10:54:32;;;;;;;6.60;4.45;;;;;;;22.60;43.38;100794.56;4924664;28;20145;-84
2021/09/23 10:56:59;;;;;;;6.38;4.22;;;;;;;22.86;43.22;100788.69;4924090;28;20091;-83
2021/09/23 10:59:26;;;;;;;7.18;5.60;;;;;;;23.04;42.78;100784.94;4906679;28;20134;-86
2021/09/23 11:01:53;;;;;;;13.57;6.13;;;;;;;23.25;42.74;100785.50;4923967;28;20063;-88
2021/09/23 11:04:22;;;;;;;8.38;5.13;;;;;;;23.78;41.94;100788.50;4917727;28;20067;-85
2021/09/23 11:06:55;;;;;;;11.05;5.88;;;;;;;23.67;41.79;100795.47;4921116;28;20051;-87
2021/09/23 11:09:29;;;;;;;11.25;5.70;;;;;;;24.10;41.63;100792.81;4916522;28;20070;-84
2021/09/23 11:12:00;;;;;;;10.75;5.95;;;;;;;24.08;41.49;100781.38;4922377;28;20050;-87
2021/09/23 11:14:29;;;;;;;12.57;7.00;;;;;;;24.28;40.86;100772.03;4901814;28;20490;-83
2021/09/23 11:16:58;;;;;;;12.65;6.75;;;;;;;23.65;42.42;100778.66;4906342;28;21281;-87